Погода Собковщинана 2 недели

Минская область, Белоруссия

25 мая-07 июня
  • 25мая
    Сегодня
    +12°
    +26°
    Облачно с прояснениями
    ВремяПогодаТемператураВлажностьДавлениеВетер, м/сВероятность осадков
    00:00Ясно и безоблачно+17°C67 %750 мм4.6 м/с2 %
    03:00Облачно с прояснениями+15°C63 %750 мм5.5 м/с2 %
    06:00Облачно с прояснениями+14°C63 %750 мм5.4 м/с2 %
    09:00Облачно с прояснениями+19°C62 %750 мм4.8 м/с2 %
    12:00Облачно с прояснениями+23°C54 %750 мм4.5 м/с3 %
    15:00Облачно с прояснениями+24°C44 %750 мм5.9 м/с20 %
    18:00Облачно с прояснениями+26°C42 %749 мм5.4 м/с21 %
    21:00Облачно с прояснениями+19°C84 %749 мм1.0 м/с11 %
  • 26мая
    Воскресенье
    +12°
    +25°
    Ясно и безоблачно
    ВремяПогодаТемператураВлажностьДавлениеВетер, м/сВероятность осадков
    00:00Облачно с прояснениями+17°C70 %750 мм3.2 м/с2 %
    03:00Облачно с прояснениями+16°C54 %750 мм3.9 м/с2 %
    06:00Облачно с прояснениями+13°C64 %750 мм2.5 м/с2 %
    09:00Ясно и безоблачно+20°C52 %751 мм2.7 м/с2 %
    12:00Ясно и безоблачно+23°C33 %751 мм3.1 м/с2 %
    15:00Ясно и безоблачно+25°C32 %750 мм2.7 м/с2 %
    18:00Ясно и безоблачно+24°C31 %750 мм3.0 м/с2 %
    21:00Ясно и безоблачно+20°C52 %750 мм2.1 м/с2 %
  • 27мая
    Понедельник
    +14°
    +27°
    Практически безоблачно
    ВремяПогодаТемператураВлажностьДавлениеВетер, м/сВероятность осадков
    00:00Ясно и безоблачно+14°C64 %750 мм2.3 м/с2 %
    03:00Ясно и безоблачно+14°C61 %750 мм1.7 м/с2 %
    06:00Ясно и безоблачно+13°C65 %750 мм2.2 м/с2 %
    09:00Ясно и безоблачно+21°C47 %750 мм2.4 м/с2 %
    12:00Ясно и безоблачно+25°C36 %750 мм3.1 м/с2 %
    15:00Практически безоблачно+26°C35 %749 мм2.7 м/с3 %
    18:00Ясно и безоблачно+26°C38 %748 мм1.9 м/с8 %
    21:00Ясно и безоблачно+21°C67 %747 мм2.1 м/с2 %
  • 28мая
    Вторник
    +15°
    +26°
    Практически безоблачно
    ВремяПогодаТемператураВлажностьДавлениеВетер, м/сВероятность осадков
    00:00Ясно и безоблачно+17°C59 %748 мм2.7 м/с2 %
    03:00Ясно и безоблачно+15°C69 %747 мм1.6 м/с2 %
    06:00Ясно и безоблачно+15°C71 %747 мм2.4 м/с2 %
    09:00Ясно и безоблачно+22°C50 %747 мм2.9 м/с2 %
    12:00Ясно и безоблачно+24°C34 %747 мм3.7 м/с3 %
    15:00Практически безоблачно+26°C34 %746 мм3.5 м/с11 %
    18:00Ясно и безоблачно+26°C30 %744 мм3.0 м/с17 %
    21:00Ясно и безоблачно+22°C50 %744 мм2.4 м/с7 %
  • 29мая
    Среда
    +15°
    +27°
    Облачно с прояснениями
    ВремяПогодаТемператураВлажностьДавлениеВетер, м/сВероятность осадков
    00:00Ясно и безоблачно+18°C71 %744 мм3.3 м/с2 %
    03:00Облачно с прояснениями+16°C81 %744 мм3.4 м/с2 %
    06:00Облачно с прояснениями+16°C79 %743 мм3.8 м/с3 %
    09:00Облачно с прояснениями+21°C64 %743 мм2.6 м/с2 %
    12:00Облачно с прояснениями+26°C33 %743 мм3.3 м/с9 %
    15:00Облачно с прояснениями+27°C28 %742 мм4.5 м/с19 %
    18:00Ясно и безоблачно+27°C29 %741 мм4.1 м/с23 %
    21:00Небольшая облачность+21°C56 %741 мм2.0 м/с13 %
Мы используем cookies
Соглашаюсь